Airfield :
LOGIN :

Register | Disclaimer

   EN    FR    IT 

 










Legend :    VFR   Marginal VFR   IFR   Intensive IFR   Very Intensive IFR
Visi :
Ceiling :
>= 8 km
>= 3000ft
5 to 8 km
1000 to 3000 ft
1500m to 5 km
500 to 1000 ft
800 to 1500m
200 to 500 ft
< 800m
< 200 ft
Symbols :   Thunderstorms  Fog  Heavy snow  Heavy precipitations  Wind > 20 kt
SIGMETs :     Misc.  Thunderstorms  Icing  Turbulence  Mountain Waves  Volcanic Ashes






- Airport Elevation : 125 ft
- IATA code : MGL


EDLN - Mönchengladbach

CURRENT METAR :
  • 030720Z VRB02KT CAVOK 19/13 Q1018

EXPIRED METARs :
  • 030650Z 29005KT 210V330 CAVOK 19/13 Q1018
  • 030620Z 28004KT 210V320 CAVOK 19/13 Q1018
  • 030550Z 29004KT 250V320 CAVOK 18/12 Q1017
  • 030520Z AUTO 27004KT 220V310 9999 // NCD 17/13 Q1017
  • 030450Z AUTO VRB02KT 9999 // NCD 16/13 Q1017

TAF TAF EDLN
Valid from the 03 at 07:00 until the 03 at 15:00 UTC


030620Z 0307/0315 27005KT CAVOK
BECMG 0311/0314 29010KT



MET'MAP, your aeronautical weather chart ! - Copyright ORBIFLY December 2007 - Disclaimer

ORBIFLY MET'MAP TEAM :

Programming & Development : Alexandra Zaïnal
Original concept : Baudouin d'Aumeries
Technical & hardware support : Manuel Goepfert
Assistance : Marc-Olivier Méhu




SOURCES & CREDITS :

   NOAA